createdAt,value
2019-02-21T00:01:38.049Z,11.30
2019-02-21T00:04:18.415Z,10.07
2019-02-21T00:09:57.696Z,9.43
2019-02-21T00:27:43.504Z,9.00
2019-02-21T00:33:35.780Z,10.83
2019-02-21T00:39:28.727Z,11.33
2019-02-21T00:42:09.468Z,10.13
2019-02-21T00:44:50.639Z,11.77
2019-02-21T00:47:31.494Z,10.93
2019-02-21T00:50:11.895Z,10.30
2019-02-21T00:52:52.279Z,8.80
2019-02-21T00:55:33.075Z,10.90
2019-02-21T00:58:13.654Z,10.00
2019-02-21T01:00:54.623Z,9.77
2019-02-21T01:03:35.367Z,10.90
2019-02-21T01:06:16.460Z,9.03
2019-02-21T01:08:57.012Z,9.40
2019-02-21T01:11:38.223Z,11.85
2019-02-21T01:14:19.150Z,10.30
2019-02-21T01:16:59.837Z,10.10
2019-02-21T01:19:40.207Z,11.70
2019-02-21T01:25:25.144Z,10.00
2019-02-21T01:28:05.736Z,11.10
2019-02-21T01:33:48.530Z,8.70
2019-02-21T01:36:29.140Z,10.03
2019-02-21T01:39:09.719Z,11.00
2019-02-21T01:41:51.099Z,9.13
2019-02-21T01:44:31.564Z,10.50
2019-02-21T01:47:12.181Z,11.25
2019-02-21T01:49:52.909Z,10.95
2019-02-21T01:52:33.796Z,12.20
2019-02-21T01:55:14.836Z,11.25
2019-02-21T01:57:55.568Z,10.35
2019-02-21T02:00:36.275Z,11.45
2019-02-21T02:06:16.412Z,9.25
2019-02-21T02:08:57.031Z,11.38
2019-02-21T02:11:37.575Z,10.93
2019-02-21T02:14:18.346Z,10.80
2019-02-21T02:16:58.755Z,10.05
2019-02-21T02:19:39.509Z,11.48
2019-02-21T02:22:20.078Z,12.07
2019-02-21T02:25:01.096Z,10.25
2019-02-21T02:27:42.551Z,10.75
2019-02-21T02:30:23.693Z,9.95
2019-02-21T02:33:04.528Z,10.98
2019-02-21T02:35:45.563Z,10.72
2019-02-21T02:38:26.083Z,11.22
2019-02-21T02:40:55.548Z,11.55
2019-02-21T02:43:43.842Z,10.40
2019-02-21T02:46:31.960Z,11.25
2019-02-21T02:49:20.155Z,9.98
2019-02-21T02:52:08.619Z,10.93
2019-02-21T02:54:56.703Z,10.45
2019-02-21T02:57:44.737Z,10.00
2019-02-21T03:00:32.758Z,11.05
2019-02-21T03:03:20.444Z,11.10
2019-02-21T03:06:08.530Z,10.10
2019-02-21T03:08:56.801Z,11.15
2019-02-21T03:11:44.918Z,10.70
2019-02-21T03:14:32.919Z,9.45
2019-02-21T03:17:20.474Z,9.05
2019-02-21T03:20:08.927Z,9.98
2019-02-21T03:22:57.506Z,10.50
2019-02-21T03:25:45.588Z,10.20
2019-02-21T03:28:33.887Z,10.93
2019-02-21T03:31:22.295Z,10.03
2019-02-21T03:34:10.375Z,10.33
2019-02-21T03:36:58.563Z,11.88
2019-02-21T03:39:46.840Z,9.57
2019-02-21T03:42:34.847Z,10.00
2019-02-21T03:45:22.907Z,11.53
2019-02-21T03:48:10.990Z,10.67
2019-02-21T03:50:58.992Z,9.73
2019-02-21T03:53:47.324Z,11.00
2019-02-21T03:56:35.660Z,11.57
2019-02-21T03:59:23.734Z,12.40
2019-02-21T04:02:11.801Z,12.10
2019-02-21T04:05:00.364Z,11.90
2019-02-21T04:07:43.169Z,11.38
2019-02-21T04:10:23.623Z,12.03
2019-02-21T04:13:03.991Z,12.00
2019-02-21T04:15:44.836Z,12.57
2019-02-21T04:18:25.775Z,10.80
2019-02-21T04:21:06.658Z,14.30
2019-02-21T04:23:47.920Z,13.07
2019-02-21T04:26:28.562Z,11.70
2019-02-21T04:29:09.247Z,12.20
2019-02-21T04:31:50.026Z,12.60
2019-02-21T04:34:31.585Z,13.32
2019-02-21T04:37:12.833Z,12.70
2019-02-21T04:39:53.307Z,12.98
2019-02-21T04:42:34.052Z,13.57
2019-02-21T04:45:15.169Z,13.40
2019-02-21T04:47:55.537Z,13.50
2019-02-21T04:50:36.429Z,15.40
2019-02-21T04:53:17.292Z,12.65
2019-02-21T04:55:57.956Z,13.03
2019-02-21T04:58:38.823Z,14.47
2019-02-21T05:01:19.449Z,12.75
2019-02-21T05:04:00.175Z,15.63
2019-02-21T05:06:40.974Z,14.85
2019-02-21T05:09:21.945Z,14.33
2019-02-21T05:12:03.222Z,16.32
2019-02-21T05:14:44.069Z,16.45
2019-02-21T05:17:24.696Z,14.50
2019-02-21T05:20:05.425Z,18.70
2019-02-21T05:22:46.216Z,17.45
2019-02-21T05:25:27.082Z,16.75
2019-02-21T05:31:10.595Z,13.83
2019-02-21T05:33:56.683Z,15.23
2019-02-21T05:36:56.540Z,14.65
2019-02-21T05:39:56.354Z,14.25
2019-02-21T05:43:01.499Z,17.85
2019-02-21T05:46:01.738Z,15.38
2019-02-21T05:48:52.304Z,16.67
2019-02-21T05:57:47.082Z,17.65
2019-02-21T06:00:47.238Z,16.95
2019-02-21T06:03:46.842Z,16.87
2019-02-21T06:06:39.108Z,19.00
2019-02-21T06:09:24.672Z,16.65
2019-02-21T06:18:29.115Z,19.42
2019-02-21T06:21:29.028Z,21.80
2019-02-21T06:24:29.381Z,17.30
2019-02-21T06:27:29.715Z,18.48
2019-02-21T06:30:05.313Z,16.05
2019-02-21T06:32:34.131Z,18.23
2019-02-21T06:35:03.264Z,17.10
2019-02-21T06:37:32.212Z,16.27
2019-02-21T06:40:01.341Z,20.12
2019-02-21T06:42:30.385Z,18.40
2019-02-21T06:44:59.189Z,18.05
2019-02-21T06:47:28.115Z,16.77
2019-02-21T06:49:58.693Z,17.40
2019-02-21T06:52:27.868Z,15.00
2019-02-21T06:54:56.918Z,19.07
2019-02-21T06:57:26.078Z,16.73
2019-02-21T06:59:55.219Z,14.60
2019-02-21T07:02:24.469Z,18.35
2019-02-21T07:04:53.306Z,17.03
2019-02-21T07:07:22.295Z,17.77
2019-02-21T07:09:51.344Z,17.40
2019-02-21T07:12:20.445Z,15.30
2019-02-21T07:14:49.333Z,17.12
2019-02-21T07:17:18.216Z,16.42
2019-02-21T07:19:47.022Z,16.70
2019-02-21T07:22:18.081Z,17.52
2019-02-21T07:24:49.535Z,18.12
2019-02-21T07:27:18.639Z,16.67
2019-02-21T07:29:47.475Z,19.02
2019-02-21T07:32:16.640Z,16.87
2019-02-21T07:34:45.504Z,16.65
2019-02-21T07:37:18.572Z,18.17
2019-02-21T07:39:45.132Z,16.48
2019-02-21T07:42:13.940Z,17.07
2019-02-21T07:44:45.320Z,16.67
2019-02-21T07:47:13.901Z,17.12
2019-02-21T07:49:42.775Z,17.17
2019-02-21T07:52:12.125Z,15.08
2019-02-21T07:54:41.452Z,18.57
2019-02-21T07:57:10.336Z,16.30
2019-02-21T07:59:39.388Z,12.47
2019-02-21T08:02:08.528Z,16.70
2019-02-21T08:04:37.324Z,17.63
2019-02-21T08:07:06.210Z,16.73
2019-02-21T08:09:35.051Z,15.40
2019-02-21T08:12:04.313Z,10.33
2019-02-21T08:14:33.689Z,14.50
2019-02-21T08:17:02.571Z,17.90
2019-02-21T08:19:31.655Z,15.17
2019-02-21T08:22:00.878Z,19.00
2019-02-21T08:24:29.891Z,10.30
2019-02-21T08:26:59.207Z,12.55
2019-02-21T08:29:28.127Z,17.00
2019-02-21T08:31:57.294Z,10.95
2019-02-21T08:34:31.129Z,11.87
2019-02-21T08:36:59.988Z,13.40
2019-02-21T08:39:28.851Z,18.03
2019-02-21T08:41:57.742Z,17.07
2019-02-21T08:44:28.810Z,17.40
2019-02-21T08:46:57.308Z,20.48
2019-02-21T08:49:26.641Z,19.20
2019-02-21T08:51:55.939Z,19.00
2019-02-21T08:54:24.749Z,20.90
2019-02-21T08:56:53.596Z,18.10
2019-02-21T08:59:22.549Z,15.30
2019-02-21T09:01:51.348Z,18.37
2019-02-21T09:04:27.272Z,19.27
2019-02-21T09:06:50.868Z,18.97
2019-02-21T09:09:19.847Z,17.50
2019-02-21T09:11:48.670Z,18.80
2019-02-21T09:14:17.552Z,19.30
2019-02-21T09:16:46.658Z,19.20
2019-02-21T09:19:15.456Z,17.47
2019-02-21T09:21:44.212Z,17.60
2019-02-21T09:24:13.937Z,19.00
2019-02-21T09:26:43.657Z,18.10
2019-02-21T09:29:12.521Z,18.57
2019-02-21T09:31:41.644Z,19.13
2019-02-21T09:34:20.965Z,19.90
2019-02-21T09:36:41.680Z,16.97
2019-02-21T09:39:10.913Z,18.27
2019-02-21T09:41:40.148Z,16.47
2019-02-21T09:44:09.398Z,18.83
2019-02-21T09:46:40.635Z,18.00
2019-02-21T09:49:09.574Z,18.23
2019-02-21T09:51:38.450Z,16.60
2019-02-21T09:54:07.397Z,17.37
2019-02-21T09:56:36.247Z,17.93
2019-02-21T09:59:05.276Z,18.90
2019-02-21T10:01:34.082Z,16.00
2019-02-21T10:04:03.267Z,17.87
2019-02-21T10:06:32.372Z,16.27
2019-02-21T10:09:01.172Z,16.60
2019-02-21T10:11:30.072Z,18.80
2019-02-21T10:13:58.896Z,16.63
2019-02-21T10:16:27.755Z,16.07
2019-02-21T10:18:56.625Z,16.30
2019-02-21T10:21:25.411Z,16.10
2019-02-21T10:23:56.606Z,18.20
2019-02-21T10:26:25.263Z,18.40
2019-02-21T10:28:54.292Z,15.60
2019-02-21T10:31:23.771Z,17.93
2019-02-21T10:33:52.555Z,17.53
2019-02-21T10:36:21.501Z,17.20
2019-02-21T10:38:50.403Z,19.73
2019-02-21T10:41:19.388Z,16.77
2019-02-21T10:43:48.236Z,16.70
2019-02-21T10:46:17.328Z,19.70
2019-02-21T10:48:46.304Z,15.97
2019-02-21T10:51:15.184Z,18.73
2019-02-21T10:53:44.291Z,18.40
2019-02-21T10:56:13.388Z,18.50
2019-02-21T10:58:42.331Z,18.67
2019-02-21T11:01:11.392Z,17.50
2019-02-21T11:03:40.275Z,16.77
2019-02-21T11:06:09.335Z,18.33
2019-02-21T11:08:38.234Z,13.73
2019-02-21T11:11:07.216Z,17.43
2019-02-21T11:13:36.179Z,17.60
2019-02-21T11:16:04.975Z,15.30
2019-02-21T11:18:34.163Z,14.07
2019-02-21T11:21:03.015Z,17.27
2019-02-21T11:23:31.975Z,16.67
2019-02-21T11:26:01.080Z,16.60
2019-02-21T11:28:30.048Z,18.20
2019-02-21T11:30:59.224Z,16.70
2019-02-21T11:33:28.100Z,17.10
2019-02-21T11:35:57.479Z,17.73
2019-02-21T11:38:26.599Z,16.97
2019-02-21T11:40:55.491Z,16.87
2019-02-21T11:43:24.891Z,17.73
2019-02-21T11:45:57.293Z,17.20
2019-02-21T11:48:24.434Z,17.00
2019-02-21T11:50:53.555Z,18.03
2019-02-21T11:53:22.730Z,16.80
2019-02-21T11:55:51.881Z,17.73
2019-02-21T11:58:20.944Z,17.33
2019-02-21T12:00:49.928Z,17.10
2019-02-21T12:03:21.260Z,17.37
2019-02-21T12:05:49.686Z,19.23
2019-02-21T12:08:18.596Z,19.43
2019-02-21T12:10:47.511Z,19.27
2019-02-21T12:13:16.313Z,17.30
2019-02-21T12:15:45.723Z,19.67
2019-02-21T12:18:14.630Z,17.30
2019-02-21T12:20:43.558Z,19.63
2019-02-21T12:23:12.839Z,18.10
2019-02-21T12:25:41.783Z,20.40
2019-02-21T12:28:10.611Z,17.07
2019-02-21T12:30:39.626Z,20.50
2019-02-21T12:33:08.840Z,17.83
2019-02-21T12:35:37.995Z,16.80
2019-02-21T12:38:07.267Z,18.00
2019-02-21T12:40:36.229Z,17.43
2019-02-21T12:43:05.264Z,17.00
2019-02-21T12:45:34.450Z,16.47
2019-02-21T12:48:03.306Z,16.70
2019-02-21T12:50:43.519Z,17.50
2019-02-21T12:53:02.974Z,17.00
2019-02-21T12:55:32.088Z,17.73
2019-02-21T12:58:01.220Z,17.53
2019-02-21T13:00:30.182Z,16.67
2019-02-21T13:02:59.095Z,17.10
2019-02-21T13:05:28.259Z,15.10
2019-02-21T13:07:57.463Z,16.20
2019-02-21T13:10:26.576Z,15.93
2019-02-21T13:12:55.468Z,16.17
2019-02-21T13:15:24.554Z,15.93
2019-02-21T13:17:53.370Z,16.80
2019-02-21T13:20:22.247Z,14.60
2019-02-21T13:22:51.617Z,16.27
2019-02-21T13:25:20.663Z,14.47
2019-02-21T13:27:49.679Z,19.20
2019-02-21T13:30:19.016Z,27.43
2019-02-21T13:32:48.498Z,21.23
2019-02-21T13:35:17.785Z,18.03
2019-02-21T13:37:46.714Z,16.20
2019-02-21T13:40:15.727Z,17.93
2019-02-21T13:42:44.807Z,15.90
2019-02-21T13:45:17.158Z,17.93
2019-02-21T13:47:45.455Z,17.17
2019-02-21T13:50:15.763Z,20.37
2019-02-21T13:52:44.754Z,18.27
2019-02-21T13:55:13.760Z,16.07
2019-02-21T13:57:43.247Z,17.87
2019-02-21T14:00:14.264Z,17.77
2019-02-21T14:02:43.427Z,14.47
2019-02-21T14:05:12.421Z,18.10
2019-02-21T14:07:41.391Z,19.80
2019-02-21T14:10:11.043Z,21.60
2019-02-21T14:12:40.456Z,19.17
2019-02-21T14:15:14.972Z,21.83
2019-02-21T14:17:46.546Z,15.57
2019-02-21T14:20:15.215Z,17.33
2019-02-21T14:22:44.185Z,17.67
2019-02-21T14:25:13.150Z,17.17
2019-02-21T14:27:49.478Z,16.90
2019-02-21T14:30:18.648Z,16.30
2019-02-21T14:32:47.691Z,17.30
2019-02-21T14:35:17.225Z,17.20
2019-02-21T14:37:46.488Z,17.40
2019-02-21T14:40:15.529Z,17.37
2019-02-21T14:42:44.716Z,16.80
2019-02-21T14:45:15.260Z,14.90
2019-02-21T14:47:44.251Z,18.60
2019-02-21T14:50:13.417Z,17.67
2019-02-21T14:52:42.889Z,16.17
2019-02-21T14:55:12.450Z,16.13
2019-02-21T14:57:41.519Z,15.43
2019-02-21T15:00:19.329Z,16.07
2019-02-21T15:02:48.392Z,15.63
2019-02-21T15:05:17.947Z,17.63
2019-02-21T15:07:47.159Z,17.53
2019-02-21T15:10:16.300Z,17.37
2019-02-21T15:12:45.343Z,15.87
2019-02-21T15:15:15.466Z,16.50
2019-02-21T15:17:44.598Z,14.50
2019-02-21T15:20:14.222Z,15.37
2019-02-21T15:22:43.664Z,14.43
2019-02-21T15:25:12.937Z,19.03
2019-02-21T15:27:41.984Z,12.87
2019-02-21T15:30:13.375Z,15.53
2019-02-21T15:32:44.976Z,20.70
2019-02-21T15:35:14.887Z,17.70
2019-02-21T15:37:45.197Z,16.73
2019-02-21T15:40:14.776Z,16.40
2019-02-21T15:42:43.971Z,16.87
2019-02-21T15:45:22.316Z,19.07
2019-02-21T15:47:46.101Z,17.10
2019-02-21T15:50:15.167Z,15.80
2019-02-21T15:52:44.671Z,15.00
2019-02-21T15:55:14.376Z,14.87
2019-02-21T15:57:43.372Z,13.93
2019-02-21T16:00:14.674Z,16.07
2019-02-21T16:02:45.504Z,13.90
2019-02-21T16:05:14.672Z,13.93
2019-02-21T16:07:43.703Z,15.60
2019-02-21T16:10:14.708Z,14.73
2019-02-21T16:12:44.203Z,16.10
2019-02-21T16:15:16.443Z,12.40
2019-02-21T16:17:44.928Z,15.00
2019-02-21T16:20:14.482Z,16.23
2019-02-21T16:22:43.795Z,15.67
2019-02-21T16:25:15.027Z,15.23
2019-02-21T16:27:45.094Z,15.00
2019-02-21T16:30:14.191Z,16.73
2019-02-21T16:32:43.448Z,13.50
2019-02-21T16:35:12.400Z,15.20
2019-02-21T16:37:41.731Z,15.73
2019-02-21T16:40:14.158Z,16.57
2019-02-21T16:42:43.326Z,14.93
2019-02-21T16:45:13.394Z,18.00
2019-02-21T16:47:42.438Z,14.70
2019-02-21T16:50:12.560Z,15.87
2019-02-21T16:52:41.844Z,17.57
2019-02-21T16:55:12.951Z,15.33
2019-02-21T16:57:42.231Z,16.60
2019-02-21T17:00:12.348Z,18.60
2019-02-21T17:02:41.596Z,16.80
2019-02-21T17:05:11.050Z,17.10
2019-02-21T17:07:40.013Z,16.47
2019-02-21T17:10:11.282Z,16.80
2019-02-21T17:12:40.505Z,17.60
2019-02-21T17:15:10.921Z,18.80
2019-02-21T17:17:39.906Z,17.60
2019-02-21T17:20:10.519Z,18.63
2019-02-21T17:22:39.439Z,16.57
2019-02-21T17:25:09.387Z,16.10
2019-02-21T17:27:38.595Z,16.57
2019-02-21T17:30:08.442Z,17.87
2019-02-21T17:32:37.271Z,15.90
2019-02-21T17:35:06.843Z,17.43
2019-02-21T17:37:35.837Z,14.97
2019-02-21T17:40:05.946Z,18.40
2019-02-21T17:42:35.573Z,13.70
2019-02-21T17:45:04.531Z,17.10
2019-02-21T17:47:33.456Z,19.03
2019-02-21T17:50:02.741Z,17.43
2019-02-21T17:52:32.208Z,16.60
2019-02-21T17:55:01.059Z,18.20
2019-02-21T17:57:30.026Z,17.33
2019-02-21T17:59:58.846Z,20.43
2019-02-21T18:02:27.862Z,18.00
2019-02-21T18:04:56.695Z,17.60
2019-02-21T18:07:35.842Z,18.73
2019-02-21T18:09:56.742Z,18.87
2019-02-21T18:12:25.917Z,18.83
2019-02-21T18:14:54.841Z,19.40
2019-02-21T18:17:23.883Z,22.83
2019-02-21T18:19:52.769Z,24.23
2019-02-21T18:22:21.884Z,18.60
2019-02-21T18:24:51.470Z,18.00
2019-02-21T18:27:20.327Z,17.77
2019-02-21T18:29:49.228Z,19.63
2019-02-21T18:32:18.208Z,16.73
2019-02-21T18:34:49.476Z,18.83
2019-02-21T18:37:18.151Z,17.27
2019-02-21T18:39:47.002Z,19.13
2019-02-21T18:42:15.991Z,17.50
2019-02-21T18:44:44.819Z,18.43
2019-02-21T18:47:13.930Z,20.77
2019-02-21T18:49:43.111Z,17.47
2019-02-21T18:52:12.079Z,19.30
2019-02-21T18:54:41.219Z,21.55
2019-02-21T18:57:12.266Z,22.00
2019-02-21T18:59:41.262Z,19.73
2019-02-21T19:02:10.128Z,20.47
2019-02-21T19:04:39.015Z,21.27
2019-02-21T19:07:08.168Z,20.67
2019-02-21T19:09:37.067Z,20.23
2019-02-21T19:12:06.284Z,19.53
2019-02-21T19:14:35.667Z,21.00
2019-02-21T19:17:04.872Z,22.70
2019-02-21T19:19:34.082Z,21.63
2019-02-21T19:22:03.352Z,22.17
2019-02-21T19:24:32.243Z,20.20
2019-02-21T19:27:01.124Z,21.10
2019-02-21T19:29:30.077Z,20.07
2019-02-21T19:31:59.118Z,20.50
2019-02-21T19:34:28.252Z,21.40
2019-02-21T19:36:57.117Z,22.80
2019-02-21T19:39:26.350Z,22.33
2019-02-21T19:41:55.399Z,21.90
2019-02-21T19:44:24.240Z,20.20
2019-02-21T19:46:53.480Z,24.20
2019-02-21T19:49:22.643Z,22.50
2019-02-21T19:51:51.639Z,21.60
2019-02-21T19:54:20.499Z,21.47
2019-02-21T19:56:49.603Z,22.83
2019-02-21T19:59:18.689Z,19.90
2019-02-21T20:01:47.933Z,20.73
2019-02-21T20:04:16.850Z,22.40
2019-02-21T20:06:45.657Z,20.30
2019-02-21T20:09:14.966Z,20.17
2019-02-21T20:11:44.155Z,20.37
2019-02-21T20:14:13.413Z,19.97
2019-02-21T20:16:42.679Z,20.40
2019-02-21T20:19:11.742Z,18.13
2019-02-21T20:21:40.551Z,20.83
2019-02-21T20:24:09.568Z,19.97
2019-02-21T20:26:38.555Z,24.00
2019-02-21T20:29:07.697Z,21.33
2019-02-21T20:31:36.523Z,22.23
2019-02-21T20:34:05.411Z,21.37
2019-02-21T20:36:34.299Z,18.77
2019-02-21T20:39:03.847Z,21.90
2019-02-21T20:41:33.087Z,22.03
2019-02-21T20:44:02.119Z,21.43
2019-02-21T20:46:31.327Z,23.03
2019-02-21T20:49:00.489Z,21.87
2019-02-21T20:51:29.683Z,20.77
2019-02-21T20:53:58.771Z,20.37
2019-02-21T20:56:27.716Z,23.57
2019-02-21T20:58:56.868Z,21.97
2019-02-21T21:01:26.164Z,19.30
2019-02-21T21:03:55.199Z,21.33
2019-02-21T21:06:24.196Z,19.50
2019-02-21T21:08:53.432Z,20.57
2019-02-21T21:11:22.955Z,20.87
2019-02-21T21:13:51.751Z,20.43
2019-02-21T21:16:20.731Z,21.60
2019-02-21T21:18:49.774Z,21.67
2019-02-21T21:21:19.243Z,21.53
2019-02-21T21:23:48.117Z,20.03
2019-02-21T21:26:17.263Z,22.40
2019-02-21T21:28:46.425Z,21.20
2019-02-21T21:31:15.863Z,21.33
2019-02-21T21:33:44.800Z,21.30
2019-02-21T21:36:13.896Z,22.87
2019-02-21T21:38:53.390Z,22.20
2019-02-21T21:41:13.293Z,21.47
2019-02-21T21:43:42.115Z,22.07
2019-02-21T21:46:11.375Z,22.37
2019-02-21T21:48:40.931Z,24.40
2019-02-21T21:51:09.934Z,21.67
2019-02-21T21:53:38.846Z,22.60
2019-02-21T21:56:08.093Z,21.17
2019-02-21T21:58:37.192Z,20.80
2019-02-21T22:01:06.368Z,21.13
2019-02-21T22:03:35.891Z,22.90
2019-02-21T22:06:05.183Z,22.80
2019-02-21T22:08:34.155Z,21.60
2019-02-21T22:11:03.856Z,22.33
2019-02-21T22:13:33.006Z,22.30
2019-02-21T22:16:01.864Z,22.47
2019-02-21T22:18:30.828Z,21.10
2019-02-21T22:20:59.611Z,22.53
2019-02-21T22:23:28.851Z,20.77
2019-02-21T22:25:57.740Z,20.87
2019-02-21T22:28:26.652Z,21.67
2019-02-21T22:30:57.970Z,18.63
2019-02-21T22:33:26.475Z,20.53
2019-02-21T22:35:55.711Z,20.43
2019-02-21T22:38:24.831Z,20.30
2019-02-21T22:40:53.732Z,20.90
2019-02-21T22:43:22.708Z,21.50
2019-02-21T22:45:51.678Z,21.87
2019-02-21T22:48:20.798Z,21.70
2019-02-21T22:50:49.901Z,20.87
2019-02-21T22:53:18.775Z,21.50
2019-02-21T22:55:47.816Z,21.63
2019-02-21T22:58:16.631Z,21.80
2019-02-21T23:01:14.091Z,20.73
2019-02-21T23:03:49.286Z,20.50
2019-02-21T23:06:46.475Z,20.17
2019-02-21T23:09:27.096Z,23.00
2019-02-21T23:11:49.199Z,21.63
2019-02-21T23:14:19.486Z,22.50
2019-02-21T23:16:48.838Z,20.30
2019-02-21T23:19:17.780Z,21.20
2019-02-21T23:21:47.055Z,21.30
2019-02-21T23:24:16.058Z,19.87
2019-02-21T23:26:45.213Z,20.70
2019-02-21T23:29:14.006Z,21.80
2019-02-21T23:31:43.158Z,21.00
2019-02-21T23:34:33.887Z,20.90
2019-02-21T23:37:03.153Z,19.50
2019-02-21T23:39:38.385Z,18.80
2019-02-21T23:42:02.667Z,20.70
2019-02-21T23:44:31.552Z,23.40
2019-02-21T23:47:00.600Z,20.63
2019-02-21T23:49:29.731Z,22.83
2019-02-21T23:51:58.855Z,20.87
2019-02-21T23:54:27.924Z,22.90
2019-02-21T23:56:57.145Z,22.10
2019-02-21T23:59:26.252Z,21.33
